createdAt,value
2023-03-26T00:01:21.454Z,7.97
2023-03-26T00:04:25.340Z,7.97
2023-03-26T00:07:27.997Z,7.86
2023-03-26T00:10:30.475Z,7.85
2023-03-26T00:13:33.285Z,7.80
2023-03-26T00:16:36.063Z,7.68
2023-03-26T00:19:39.009Z,7.62
2023-03-26T00:22:41.629Z,7.66
2023-03-26T00:25:45.630Z,7.69
2023-03-26T00:28:51.197Z,7.72
2023-03-26T00:31:53.427Z,7.79
2023-03-26T00:34:56.816Z,7.71
2023-03-26T00:37:59.822Z,7.55
2023-03-26T00:41:06.067Z,7.57
2023-03-26T00:44:09.249Z,7.39
2023-03-26T00:47:11.824Z,7.39
2023-03-26T00:50:16.233Z,7.44
2023-03-26T00:53:19.997Z,7.50
2023-03-26T00:56:22.337Z,7.35
2023-03-26T00:59:24.782Z,7.44
2023-03-26T01:02:27.215Z,7.29
2023-03-26T01:05:33.948Z,7.42
2023-03-26T01:08:36.055Z,7.38
2023-03-26T01:11:38.526Z,7.43
2023-03-26T01:14:41.617Z,7.24
2023-03-26T01:17:44.154Z,7.31
2023-03-26T01:20:49.701Z,7.39
2023-03-26T01:23:59.938Z,7.24
2023-03-26T01:27:17.769Z,7.27
2023-03-26T01:30:42.501Z,7.22
2023-03-26T01:34:03.865Z,7.40
2023-03-26T01:37:52.447Z,7.41
2023-03-26T01:41:00.684Z,7.62
2023-03-26T01:44:17.183Z,7.60
2023-03-26T01:47:21.173Z,7.63
2023-03-26T01:50:23.746Z,7.70
2023-03-26T01:53:26.858Z,7.68
2023-03-26T01:56:50.372Z,7.91
2023-03-26T01:59:58.597Z,7.86
2023-03-26T02:03:17.673Z,7.86
2023-03-26T02:06:31.738Z,7.80
2023-03-26T02:09:42.049Z,7.71
2023-03-26T02:12:45.752Z,7.74
2023-03-26T02:15:54.764Z,7.70
2023-03-26T02:18:59.216Z,7.59
2023-03-26T02:22:02.196Z,7.54
2023-03-26T02:25:05.220Z,7.50
2023-03-26T02:28:07.789Z,7.45
2023-03-26T02:31:10.947Z,7.41
2023-03-26T02:34:13.831Z,7.34
2023-03-26T02:37:20.832Z,7.39
2023-03-26T02:40:24.958Z,7.17
2023-03-26T02:43:27.653Z,7.07
2023-03-26T02:46:30.329Z,7.18
2023-03-26T02:49:33.857Z,7.12
2023-03-26T02:52:36.438Z,7.05
2023-03-26T02:55:39.075Z,7.08
2023-03-26T02:58:42.051Z,7.00
2023-03-26T03:01:46.524Z,6.89
2023-03-26T03:04:49.813Z,6.85
2023-03-26T03:07:57.940Z,6.69
2023-03-26T03:11:08.162Z,6.60
2023-03-26T03:14:10.856Z,6.60
2023-03-26T03:17:13.485Z,6.53
2023-03-26T03:20:16.702Z,6.50
2023-03-26T03:23:19.465Z,6.53
2023-03-26T03:26:27.652Z,6.60
2023-03-26T03:29:30.339Z,6.63
2023-03-26T03:32:33.789Z,6.64
2023-03-26T03:35:37.794Z,6.57
2023-03-26T03:38:40.624Z,6.49
2023-03-26T03:41:43.228Z,6.35
2023-03-26T03:44:46.834Z,6.30
2023-03-26T03:47:50.275Z,6.35
2023-03-26T03:50:55.010Z,6.37
2023-03-26T03:53:57.764Z,6.51
2023-03-26T03:57:02.172Z,6.46
2023-03-26T04:00:08.907Z,6.51
2023-03-26T04:03:18.650Z,6.30
2023-03-26T04:06:21.436Z,6.26
2023-03-26T04:09:25.358Z,6.23
2023-03-26T04:12:29.022Z,6.17
2023-03-26T04:15:31.361Z,6.19
2023-03-26T04:18:34.224Z,6.13
2023-03-26T04:21:37.797Z,5.92
2023-03-26T04:24:40.807Z,5.78
2023-03-26T04:27:46.202Z,5.68
2023-03-26T04:30:48.845Z,5.51
2023-03-26T04:33:57.375Z,5.46
2023-03-26T04:37:02.556Z,5.40
2023-03-26T04:40:11.163Z,5.41
2023-03-26T04:43:18.660Z,5.37
2023-03-26T04:46:23.898Z,5.39
2023-03-26T04:49:26.795Z,5.42
2023-03-26T04:52:29.491Z,5.48
2023-03-26T04:55:43.138Z,5.70
2023-03-26T04:58:46.006Z,5.75
2023-03-26T05:01:48.510Z,5.85
2023-03-26T05:04:51.143Z,6.03
2023-03-26T05:07:53.956Z,6.23
2023-03-26T05:10:56.763Z,6.43
2023-03-26T05:14:02.044Z,6.81
2023-03-26T05:17:06.101Z,7.27
2023-03-26T05:20:20.841Z,7.55
2023-03-26T05:23:23.141Z,8.36
2023-03-26T05:26:26.216Z,9.08
2023-03-26T05:29:28.510Z,9.16
2023-03-26T05:32:32.365Z,9.39
2023-03-26T05:35:34.772Z,8.96
2023-03-26T05:38:37.429Z,8.79
2023-03-26T05:41:40.256Z,10.05
2023-03-26T05:44:42.712Z,11.59
2023-03-26T05:47:46.090Z,11.55
2023-03-26T05:50:50.472Z,11.82
2023-03-26T05:53:53.016Z,13.31
2023-03-26T05:57:00.340Z,14.51
2023-03-26T06:00:12.144Z,16.03
2023-03-26T06:03:18.720Z,14.95
2023-03-26T06:06:22.285Z,14.40
2023-03-26T06:09:24.846Z,18.42
2023-03-26T06:12:27.635Z,18.94
2023-03-26T06:15:29.838Z,19.01
2023-03-26T06:18:33.212Z,20.86
2023-03-26T06:21:35.397Z,21.97
2023-03-26T06:24:38.132Z,22.92
2023-03-26T06:27:40.772Z,25.54
2023-03-26T06:30:43.677Z,27.09
2023-03-26T06:33:48.723Z,28.53
2023-03-26T06:36:52.721Z,26.46
2023-03-26T06:39:55.376Z,25.46
2023-03-26T06:43:07.651Z,25.07
2023-03-26T06:46:13.395Z,27.07
2023-03-26T06:49:17.774Z,25.38
2023-03-26T06:52:20.263Z,25.91
2023-03-26T06:55:23.535Z,25.14
2023-03-26T06:58:26.993Z,24.48
2023-03-26T07:01:35.791Z,24.66
2023-03-26T07:04:53.565Z,24.64
2023-03-26T07:08:04.705Z,23.67
2023-03-26T07:11:11.586Z,24.30
2023-03-26T07:14:17.754Z,25.10
2023-03-26T07:17:20.701Z,25.70
2023-03-26T07:20:24.052Z,22.54
2023-03-26T07:23:27.152Z,22.30
2023-03-26T07:26:51.977Z,21.93
2023-03-26T07:30:04.265Z,18.30
2023-03-26T07:33:14.033Z,16.75
2023-03-26T07:36:28.615Z,15.54
2023-03-26T07:39:37.633Z,14.10
2023-03-26T07:43:06.567Z,13.29
2023-03-26T07:46:12.569Z,13.44
2023-03-26T07:49:15.251Z,13.58
2023-03-26T07:52:18.196Z,13.67
2023-03-26T07:55:21.192Z,14.01
2023-03-26T07:58:41.552Z,15.04
2023-03-26T08:02:02.808Z,14.89
2023-03-26T08:05:19.670Z,14.49
2023-03-26T08:08:38.178Z,15.20
2023-03-26T08:11:56.895Z,15.44
2023-03-26T08:15:41.563Z,15.17
2023-03-26T08:18:56.166Z,14.63
2023-03-26T08:22:27.341Z,15.33
2023-03-26T08:25:40.422Z,15.50
2023-03-26T08:28:55.256Z,15.29
2023-03-26T08:31:57.960Z,15.42
2023-03-26T08:35:01.134Z,15.60
2023-03-26T08:38:03.665Z,15.74
2023-03-26T08:41:08.908Z,15.54
2023-03-26T08:44:36.430Z,15.83
2023-03-26T08:47:44.607Z,15.64
2023-03-26T08:51:07.618Z,15.78
2023-03-26T08:54:39.208Z,15.79
2023-03-26T08:58:24.329Z,15.75
2023-03-26T09:01:47.997Z,16.05
2023-03-26T09:05:30.076Z,15.94
2023-03-26T09:09:04.581Z,16.33
2023-03-26T09:12:25.535Z,16.31
2023-03-26T09:15:33.722Z,16.81
2023-03-26T09:18:36.931Z,16.84
2023-03-26T09:21:48.361Z,16.23
2023-03-26T09:24:59.831Z,16.50
2023-03-26T09:28:23.602Z,17.02
2023-03-26T09:31:38.262Z,16.84
2023-03-26T09:34:55.913Z,16.94
2023-03-26T09:38:00.734Z,17.62
2023-03-26T09:41:14.371Z,17.32
2023-03-26T09:44:19.798Z,17.43
2023-03-26T09:47:47.437Z,17.20
2023-03-26T09:51:11.412Z,16.93
2023-03-26T09:54:36.810Z,17.31
2023-03-26T09:58:19.004Z,17.99
2023-03-26T10:01:58.743Z,17.71
2023-03-26T10:05:35.101Z,19.14
2023-03-26T10:08:51.339Z,18.41
2023-03-26T10:12:01.160Z,17.69
2023-03-26T10:15:24.039Z,16.80
2023-03-26T10:18:36.869Z,16.04
2023-03-26T10:22:10.597Z,15.64
2023-03-26T10:25:22.358Z,15.66
2023-03-26T10:28:45.791Z,15.13
2023-03-26T10:31:51.571Z,14.42
2023-03-26T10:35:03.994Z,12.96
2023-03-26T10:38:32.956Z,11.63
2023-03-26T10:42:00.582Z,10.60
2023-03-26T10:45:18.050Z,10.35
2023-03-26T10:48:49.643Z,11.53
2023-03-26T10:52:00.932Z,12.51
2023-03-26T10:55:29.146Z,12.72
2023-03-26T10:58:49.463Z,13.93
2023-03-26T11:02:19.300Z,14.51
2023-03-26T11:05:47.065Z,13.98
2023-03-26T11:09:03.855Z,13.94
2023-03-26T11:12:35.244Z,13.76
2023-03-26T11:16:02.726Z,13.93
2023-03-26T11:19:20.235Z,13.57
2023-03-26T11:22:53.623Z,13.20
2023-03-26T11:26:49.099Z,13.68
2023-03-26T11:30:16.191Z,14.71
2023-03-26T11:33:22.977Z,14.96
2023-03-26T11:36:36.310Z,14.66
2023-03-26T11:39:50.989Z,14.42
2023-03-26T11:42:58.501Z,14.83
2023-03-26T11:46:04.741Z,17.02
2023-03-26T11:49:12.454Z,18.69
2023-03-26T11:52:15.812Z,21.23
2023-03-26T11:55:18.097Z,22.21
2023-03-26T11:58:27.864Z,23.33
2023-03-26T12:01:44.212Z,24.45
2023-03-26T12:04:55.295Z,25.40
2023-03-26T12:08:00.572Z,23.35
2023-03-26T12:11:09.270Z,21.43
2023-03-26T12:14:19.036Z,18.04
2023-03-26T12:17:31.247Z,18.31
2023-03-26T12:20:36.693Z,19.08
2023-03-26T12:24:04.283Z,18.81
2023-03-26T12:27:21.626Z,18.18
2023-03-26T12:30:26.873Z,18.74
2023-03-26T12:33:34.867Z,19.33
2023-03-26T12:36:39.056Z,19.03
2023-03-26T12:40:10.039Z,18.63
2023-03-26T12:44:53.470Z,18.55
2023-03-26T12:48:00.299Z,17.70
2023-03-26T12:50:58.152Z,20.88
2023-03-26T12:54:26.459Z,22.68
2023-03-26T12:57:38.808Z,19.96
2023-03-26T13:01:05.999Z,18.58
2023-03-26T13:05:05.694Z,17.98
2023-03-26T13:08:47.193Z,17.61
2023-03-26T13:12:00.677Z,17.31
2023-03-26T13:15:18.230Z,17.35
2023-03-26T13:18:53.934Z,17.36
2023-03-26T13:22:20.108Z,17.96
2023-03-26T13:25:42.907Z,19.25
2023-03-26T13:29:00.123Z,19.15
2023-03-26T13:32:21.947Z,18.77
2023-03-26T13:35:28.907Z,19.81
2023-03-26T13:39:04.995Z,19.51
2023-03-26T13:42:25.413Z,19.23
2023-03-26T13:45:49.547Z,18.24
2023-03-26T13:48:57.755Z,17.83
2023-03-26T13:52:32.284Z,17.82
2023-03-26T13:55:43.625Z,17.77
2023-03-26T13:58:54.183Z,17.58
2023-03-26T14:02:05.185Z,17.73
2023-03-26T14:05:28.095Z,17.74
2023-03-26T14:08:36.130Z,17.96
2023-03-26T14:12:00.179Z,18.33
2023-03-26T14:15:19.538Z,18.55
2023-03-26T14:18:53.563Z,18.76
2023-03-26T14:22:08.917Z,19.16
2023-03-26T14:25:39.063Z,18.70
2023-03-26T14:29:03.852Z,18.32
2023-03-26T14:32:24.924Z,18.37
2023-03-26T14:35:58.143Z,18.27
2023-03-26T14:39:49.469Z,17.99
2023-03-26T14:43:09.887Z,18.20
2023-03-26T14:46:28.244Z,18.04
2023-03-26T14:49:51.728Z,17.61
2023-03-26T14:53:01.301Z,17.40
2023-03-26T14:56:15.762Z,17.23
2023-03-26T14:59:55.456Z,17.27
2023-03-26T15:03:17.493Z,17.16
2023-03-26T15:06:31.987Z,16.95
2023-03-26T15:09:49.377Z,17.00
2023-03-26T15:13:07.226Z,16.94
2023-03-26T15:16:21.613Z,16.81
2023-03-26T15:19:42.912Z,16.60
2023-03-26T15:23:18.461Z,16.30
2023-03-26T15:26:30.855Z,16.34
2023-03-26T15:30:00.382Z,16.42
2023-03-26T15:33:27.721Z,16.47
2023-03-26T15:37:18.669Z,16.50
2023-03-26T15:40:48.386Z,16.25
2023-03-26T15:44:23.035Z,16.17
2023-03-26T15:47:30.874Z,16.15
2023-03-26T15:50:55.931Z,16.14
2023-03-26T15:54:07.613Z,16.17
2023-03-26T15:57:34.600Z,16.02
2023-03-26T16:01:03.005Z,15.82
2023-03-26T16:04:36.098Z,15.75
2023-03-26T16:08:09.210Z,15.59
2023-03-26T16:11:12.722Z,15.44
2023-03-26T16:14:44.543Z,15.29
2023-03-26T16:18:16.840Z,15.09
2023-03-26T16:21:31.944Z,14.99
2023-03-26T16:24:41.079Z,14.87
2023-03-26T16:27:45.189Z,14.80
2023-03-26T16:31:23.519Z,14.67
2023-03-26T16:34:46.116Z,14.55
2023-03-26T16:37:50.648Z,14.42
2023-03-26T16:41:01.110Z,14.22
2023-03-26T16:44:19.636Z,14.07
2023-03-26T16:47:46.234Z,13.87
2023-03-26T16:51:09.311Z,13.78
2023-03-26T16:54:41.044Z,13.65
2023-03-26T16:57:56.197Z,13.52
2023-03-26T17:01:27.871Z,13.39
2023-03-26T17:04:34.416Z,13.30
2023-03-26T17:07:48.094Z,13.12
2023-03-26T17:11:00.396Z,13.14
2023-03-26T17:14:27.173Z,13.15
2023-03-26T17:17:57.337Z,13.13
2023-03-26T17:21:02.640Z,13.07
2023-03-26T17:24:36.329Z,13.10
2023-03-26T17:27:49.964Z,12.97
2023-03-26T17:31:11.259Z,12.87
2023-03-26T17:34:46.848Z,12.86
2023-03-26T17:37:49.716Z,12.83
2023-03-26T17:40:58.354Z,12.82
2023-03-26T17:44:25.664Z,12.88
2023-03-26T17:47:52.873Z,12.86
2023-03-26T17:50:59.180Z,12.92
2023-03-26T17:54:02.213Z,12.92
2023-03-26T17:57:26.933Z,12.85
2023-03-26T18:00:35.991Z,12.81
2023-03-26T18:03:49.455Z,12.83
2023-03-26T18:07:18.370Z,12.85
2023-03-26T18:10:56.223Z,12.86
2023-03-26T18:14:15.667Z,12.90
2023-03-26T18:17:18.296Z,12.92
2023-03-26T18:20:26.885Z,12.97
2023-03-26T18:23:39.097Z,12.99
2023-03-26T18:26:44.434Z,13.24
2023-03-26T18:30:02.771Z,13.04
2023-03-26T18:33:14.558Z,12.96
2023-03-26T18:36:18.592Z,12.90
2023-03-26T18:39:20.687Z,12.94
2023-03-26T18:42:24.491Z,12.91
2023-03-26T18:45:39.446Z,12.92
2023-03-26T18:48:42.609Z,12.91
2023-03-26T18:51:56.093Z,12.86
2023-03-26T18:54:59.672Z,12.83
2023-03-26T18:58:21.448Z,12.78
2023-03-26T19:01:30.645Z,12.75
2023-03-26T19:04:34.935Z,12.72
2023-03-26T19:07:38.998Z,12.65
2023-03-26T19:10:41.385Z,12.62
2023-03-26T19:13:46.310Z,12.59
2023-03-26T19:17:02.099Z,12.62
2023-03-26T19:20:10.012Z,12.58
2023-03-26T19:23:26.553Z,12.66
2023-03-26T19:26:29.388Z,12.85
2023-03-26T19:29:35.169Z,12.71
2023-03-26T19:32:37.768Z,12.49
2023-03-26T19:35:41.950Z,12.37
2023-03-26T19:38:52.399Z,12.41
2023-03-26T19:41:55.226Z,12.49
2023-03-26T19:45:01.760Z,12.41
2023-03-26T19:48:14.938Z,12.36
2023-03-26T19:51:38.683Z,12.23
2023-03-26T19:54:59.698Z,12.43
2023-03-26T19:58:04.221Z,12.34
2023-03-26T20:01:12.616Z,12.27
2023-03-26T20:04:16.369Z,12.17
2023-03-26T20:07:35.437Z,12.12
2023-03-26T20:10:38.793Z,12.13
2023-03-26T20:13:41.317Z,12.06
2023-03-26T20:16:45.318Z,12.04
2023-03-26T20:19:48.657Z,12.15
2023-03-26T20:22:53.858Z,11.99
2023-03-26T20:25:56.701Z,12.05
2023-03-26T20:29:00.152Z,12.04
2023-03-26T20:32:06.280Z,12.06
2023-03-26T20:35:35.916Z,11.95
2023-03-26T20:38:43.317Z,11.84
2023-03-26T20:41:48.231Z,11.74
2023-03-26T20:44:50.984Z,11.62
2023-03-26T20:47:54.178Z,11.60
2023-03-26T20:50:57.112Z,11.54
2023-03-26T20:54:00.443Z,11.55
2023-03-26T20:57:02.934Z,11.59
2023-03-26T21:00:17.240Z,11.60
2023-03-26T21:03:19.585Z,11.60
2023-03-26T21:06:22.133Z,11.64
2023-03-26T21:09:25.156Z,11.56
2023-03-26T21:12:33.481Z,11.58
2023-03-26T21:15:35.963Z,11.63
2023-03-26T21:18:39.721Z,11.63
2023-03-26T21:22:10.757Z,11.61
2023-03-26T21:25:19.693Z,11.64
2023-03-26T21:28:46.691Z,11.58
2023-03-26T21:31:50.506Z,11.60
2023-03-26T21:34:59.290Z,11.54
2023-03-26T21:38:04.740Z,11.54
2023-03-26T21:41:07.730Z,11.49
2023-03-26T21:44:10.390Z,11.27
2023-03-26T21:47:13.102Z,10.87
2023-03-26T21:50:21.689Z,10.43
2023-03-26T21:53:24.118Z,10.18
2023-03-26T21:56:32.192Z,10.22
2023-03-26T21:59:43.677Z,10.17
2023-03-26T22:02:49.092Z,10.11
2023-03-26T22:05:54.497Z,10.12
2023-03-26T22:08:57.034Z,10.16
2023-03-26T22:11:59.529Z,10.14
2023-03-26T22:15:01.710Z,10.23
2023-03-26T22:18:04.939Z,10.28
2023-03-26T22:21:07.575Z,10.13
2023-03-26T22:24:12.111Z,9.95
2023-03-26T22:27:16.035Z,9.86
2023-03-26T22:30:20.637Z,9.70
2023-03-26T22:33:22.915Z,9.53
2023-03-26T22:36:25.400Z,9.25
2023-03-26T22:39:27.643Z,9.04
2023-03-26T22:42:30.108Z,8.89
2023-03-26T22:45:32.599Z,8.80
2023-03-26T22:48:35.792Z,8.69
2023-03-26T22:51:37.944Z,8.63
2023-03-26T22:54:40.465Z,8.56
2023-03-26T22:57:42.773Z,8.50
2023-03-26T23:00:46.392Z,8.47
2023-03-26T23:03:49.277Z,8.45
2023-03-26T23:06:51.727Z,8.42
2023-03-26T23:09:53.926Z,8.38
2023-03-26T23:12:56.408Z,8.36
2023-03-26T23:15:59.256Z,8.28
2023-03-26T23:19:01.685Z,8.27
2023-03-26T23:22:03.845Z,8.25
2023-03-26T23:25:07.161Z,8.24
2023-03-26T23:28:09.911Z,8.21
2023-03-26T23:31:13.080Z,8.22
2023-03-26T23:34:16.853Z,8.17
2023-03-26T23:37:23.091Z,8.10
2023-03-26T23:40:25.447Z,8.14
2023-03-26T23:43:28.863Z,8.12
2023-03-26T23:46:34.452Z,8.15
2023-03-26T23:49:37.751Z,8.15
2023-03-26T23:52:40.081Z,8.22
2023-03-26T23:55:46.243Z,8.15
2023-03-26T23:58:51.187Z,8.09
